TimeCST,TemperatureF,Dew PointF,Humidity,Sea Level PressureIn,VisibilityMPH,Wind Direction,Wind SpeedMPH,Gust SpeedMPH,PrecipitationIn,Events,Conditions,WindDirDegrees,DateUTC
12:15 AM,28.4,26.6,93,30.07,9.0,NNE,5.8,-,N/A,,Overcast,20,2012-12-28 06:15:00
12:35 AM,30.2,26.6,86,30.07,10.0,NNE,5.8,-,N/A,,Overcast,30,2012-12-28 06:35:00
12:55 AM,30.2,28.4,93,30.07,8.0,NNE,4.6,-,N/A,,Overcast,30,2012-12-28 06:55:00
1:15 AM,30.2,28.4,93,30.06,8.0,ENE,6.9,-,N/A,,Overcast,70,2012-12-28 07:15:00
1:55 AM,30.2,28.4,93,30.07,8.0,East,3.5,-,N/A,,Overcast,80,2012-12-28 07:55:00
2:15 AM,30.2,28.4,93,30.06,8.0,ESE,5.8,-,N/A,,Overcast,110,2012-12-28 08:15:00
2:35 AM,30.2,30.2,100,30.04,9.0,ESE,8.1,-,N/A,,Mostly Cloudy,110,2012-12-28 08:35:00
2:55 AM,32.0,30.2,93,30.04,10.0,East,5.8,-,N/A,,Overcast,100,2012-12-28 08:55:00
3:35 AM,32.0,30.2,93,30.04,10.0,Calm,Calm,-,N/A,,Overcast,0,2012-12-28 09:35:00
4:15 AM,32.0,30.2,93,30.04,10.0,SSE,5.8,-,N/A,,Overcast,160,2012-12-28 10:15:00
4:35 AM,32.0,30.2,93,30.04,10.0,SSE,4.6,-,N/A,,Overcast,150,2012-12-28 10:35:00
5:15 AM,32.0,30.2,93,30.04,10.0,NNW,4.6,-,N/A,,Overcast,330,2012-12-28 11:15:00
5:35 AM,32.0,30.2,93,30.04,7.0,Calm,Calm,-,N/A,,Overcast,0,2012-12-28 11:35:00
5:55 AM,32.0,30.2,93,30.05,7.0,Calm,Calm,-,N/A,,Overcast,0,2012-12-28 11:55:00
6:15 AM,32.0,30.2,93,30.04,9.0,NNE,4.6,-,N/A,,Overcast,30,2012-12-28 12:15:00
6:55 AM,32.0,30.2,93,30.04,9.0,NNE,4.6,-,N/A,,Overcast,30,2012-12-28 12:55:00
7:15 AM,32.0,30.2,93,30.02,5.0,NE,6.9,-,N/A,,Overcast,50,2012-12-28 13:15:00
7:55 AM,32.0,30.2,93,30.02,6.0,NE,5.8,-,N/A,,Overcast,50,2012-12-28 13:55:00
8:15 AM,32.0,30.2,93,30.00,7.0,ENE,8.1,-,N/A,,Overcast,60,2012-12-28 14:15:00
8:35 AM,33.8,30.2,87,30.01,7.0,ENE,5.8,-,N/A,,Overcast,60,2012-12-28 14:35:00
8:55 AM,33.8,30.2,87,30.00,8.0,NE,5.8,-,N/A,,Overcast,50,2012-12-28 14:55:00
9:15 AM,33.8,30.2,87,29.98,6.0,NE,9.2,-,N/A,,Mostly Cloudy,50,2012-12-28 15:15:00
9:35 AM,33.8,30.2,87,29.99,6.0,NE,8.1,-,N/A,,Mostly Cloudy,50,2012-12-28 15:35:00
9:55 AM,33.8,30.2,87,30.02,3.0,North,3.5,-,N/A,,Overcast,360,2012-12-28 15:55:00
10:15 AM,33.8,30.2,87,30.03,4.0,North,6.9,-,N/A,,Overcast,350,2012-12-28 16:15:00
10:35 AM,33.8,32.0,93,30.02,2.5,North,4.6,-,0.02,,Overcast,360,2012-12-28 16:35:00
10:55 AM,33.8,32.0,93,29.99,3.0,North,5.8,-,0.04,,Overcast,10,2012-12-28 16:55:00
11:35 AM,33.8,32.0,93,29.96,3.0,NNE,8.1,-,0.01,,Mostly Cloudy,30,2012-12-28 17:35:00
12:15 PM,33.8,32.0,93,29.93,2.0,NNE,5.8,-,0.01,,Overcast,20,2012-12-28 18:15:00
12:35 PM,33.8,32.0,93,29.91,2.5,NNE,6.9,-,0.01,,Overcast,30,2012-12-28 18:35:00
12:55 PM,33.8,32.0,93,29.93,1.8,NNW,4.6,-,0.02,,Overcast,340,2012-12-28 18:55:00
1:15 PM,33.8,32.0,93,29.90,1.2,North,6.9,-,0.02,,Overcast,350,2012-12-28 19:15:00
1:35 PM,33.8,33.8,100,29.89,1.2,North,5.8,-,0.03,,Overcast,10,2012-12-28 19:35:00
1:55 PM,33.8,33.8,100,29.87,1.2,North,8.1,-,0.03,,Overcast,10,2012-12-28 19:55:00
2:15 PM,33.8,33.8,100,29.86,1.2,North,8.1,-,N/A,,Overcast,360,2012-12-28 20:15:00
2:35 PM,33.8,32.0,93,29.85,1.2,North,11.5,-,0.01,,Overcast,360,2012-12-28 20:35:00
2:55 PM,33.8,32.0,93,29.85,2.0,North,10.4,-,0.01,,Overcast,350,2012-12-28 20:55:00
3:35 PM,33.8,32.0,93,29.85,1.2,North,13.8,-,N/A,,Overcast,350,2012-12-28 21:35:00
4:35 PM,33.8,32.0,93,29.86,1.0,North,10.4,-,N/A,,Overcast,350,2012-12-28 22:35:00
4:55 PM,32.0,32.0,100,29.87,1.0,NNW,9.2,-,N/A,,Overcast,330,2012-12-28 22:55:00
5:15 PM,32.0,32.0,100,29.88,0.5,NNW,8.1,-,N/A,,Overcast,330,2012-12-28 23:15:00
5:55 PM,32.0,30.2,93,29.89,1.0,NW,9.2,-,0.05,,Overcast,310,2012-12-28 23:55:00
6:15 PM,32.0,32.0,100,29.90,1.0,NW,8.1,-,N/A,,Overcast,310,2012-12-29 00:15:00
6:55 PM,32.0,32.0,100,29.91,1.8,NW,9.2,-,0.01,,Overcast,310,2012-12-29 00:55:00
7:15 PM,32.0,32.0,100,29.91,1.8,WNW,9.2,-,N/A,,Overcast,300,2012-12-29 01:15:00
7:35 PM,32.0,32.0,100,29.91,1.8,NW,9.2,-,0.01,,Overcast,310,2012-12-29 01:35:00
7:55 PM,32.0,32.0,100,29.90,2.0,NNW,9.2,-,0.02,,Overcast,340,2012-12-29 01:55:00
8:36 PM,32.0,32.0,100,29.91,3.0,NW,8.1,-,N/A,,Mostly Cloudy,310,2012-12-29 02:36:00
8:55 PM,33.8,32.0,93,29.92,7.0,WNW,11.5,-,N/A,,Mostly Cloudy,300,2012-12-29 02:55:00
9:15 PM,33.8,32.0,93,29.92,5.0,NW,11.5,-,N/A,,Overcast,310,2012-12-29 03:15:00
9:35 PM,33.8,32.0,93,29.93,6.0,WNW,10.4,-,N/A,,Overcast,300,2012-12-29 03:35:00
9:55 PM,33.8,32.0,93,29.93,9.0,WNW,11.5,-,N/A,,Mostly Cloudy,300,2012-12-29 03:55:00
10:35 PM,33.8,32.0,93,29.95,8.0,WNW,9.2,-,N/A,,Overcast,290,2012-12-29 04:35:00
10:55 PM,33.8,32.0,93,29.95,9.0,WNW,8.1,-,N/A,,Overcast,290,2012-12-29 04:55:00
11:35 PM,33.8,32.0,93,29.96,8.0,WNW,11.5,-,N/A,,Overcast,290,2012-12-29 05:35:00
11:55 PM,33.8,30.2,87,29.97,8.0,WNW,11.5,-,N/A,,Overcast,290,2012-12-29 05:55:00